createdAt,value
2019-06-01T00:02:17.931Z,8.50
2019-06-01T00:04:49.216Z,8.50
2019-06-01T00:07:18.950Z,8.50
2019-06-01T00:09:49.649Z,8.40
2019-06-01T00:12:19.307Z,8.40
2019-06-01T00:14:50.540Z,8.40
2019-06-01T00:17:20.107Z,8.30
2019-06-01T00:19:50.351Z,8.30
2019-06-01T00:22:20.162Z,8.30
2019-06-01T00:24:50.095Z,8.20
2019-06-01T00:27:28.553Z,8.20
2019-06-01T00:29:58.217Z,8.20
2019-06-01T00:32:27.782Z,8.20
2019-06-01T00:34:57.432Z,8.20
2019-06-01T00:37:27.088Z,8.20
2019-06-01T00:39:56.656Z,8.10
2019-06-01T00:42:26.326Z,8.10
2019-06-01T00:44:55.958Z,8.10
2019-06-01T00:47:25.489Z,8.00
2019-06-01T00:49:55.155Z,8.00
2019-06-01T00:52:24.787Z,8.00
2019-06-01T00:54:54.311Z,8.00
2019-06-01T00:57:23.896Z,7.90
2019-06-01T00:59:55.012Z,7.90
2019-06-01T01:02:24.821Z,7.80
2019-06-01T01:05:17.950Z,7.80
2019-06-01T01:07:48.811Z,7.80
2019-06-01T01:10:18.654Z,7.70
2019-06-01T01:12:53.201Z,7.70
2019-06-01T01:15:22.892Z,7.60
2019-06-01T01:17:52.475Z,7.60
2019-06-01T01:20:22.100Z,7.60
2019-06-01T01:22:52.249Z,7.50
2019-06-01T01:25:21.853Z,7.50
2019-06-01T01:27:51.368Z,7.50
2019-06-01T01:30:22.492Z,7.50
2019-06-01T01:32:53.334Z,7.40
2019-06-01T01:35:23.240Z,7.40
2019-06-01T01:37:58.214Z,7.40
2019-06-01T01:40:29.116Z,7.40
2019-06-01T01:42:59.792Z,7.30
2019-06-01T01:45:29.375Z,7.30
2019-06-01T01:47:59.217Z,7.30
2019-06-01T01:50:28.942Z,7.30
2019-06-01T01:52:59.006Z,7.30
2019-06-01T01:55:29.936Z,7.30
2019-06-01T01:57:59.621Z,7.30
2019-06-01T02:00:43.299Z,7.30
2019-06-01T02:03:13.032Z,7.30
2019-06-01T02:05:42.951Z,7.40
2019-06-01T02:08:13.322Z,7.40
2019-06-01T02:10:42.883Z,7.40
2019-06-01T02:13:12.555Z,7.40
2019-06-01T02:15:42.687Z,7.50
2019-06-01T02:18:12.325Z,7.50
2019-06-01T02:20:41.892Z,7.50
2019-06-01T02:23:11.479Z,7.50
2019-06-01T02:25:41.170Z,7.50
2019-06-01T02:28:11.090Z,7.50
2019-06-01T02:30:40.685Z,7.50
2019-06-01T02:33:10.265Z,7.50
2019-06-01T02:35:39.925Z,7.60
2019-06-01T02:38:09.446Z,7.60
2019-06-01T02:40:39.042Z,7.60
2019-06-01T02:43:08.630Z,7.60
2019-06-01T02:45:38.269Z,7.60
2019-06-01T02:48:08.266Z,7.70
2019-06-01T02:50:37.907Z,7.70
2019-06-01T02:53:07.514Z,7.70
2019-06-01T02:55:37.090Z,7.80
2019-06-01T02:58:06.873Z,7.80
2019-06-01T03:00:47.807Z,7.90
2019-06-01T03:03:18.088Z,8.00
2019-06-01T03:05:48.666Z,8.10
2019-06-01T03:08:20.583Z,8.10
2019-06-01T03:10:52.420Z,8.20
2019-06-01T03:13:23.921Z,8.30
2019-06-01T03:15:56.786Z,8.30
2019-06-01T03:18:27.675Z,8.40
2019-06-01T03:20:57.948Z,8.50
2019-06-01T03:23:29.476Z,8.60
2019-06-01T03:26:02.099Z,8.70
2019-06-01T03:28:34.893Z,8.80
2019-06-01T03:31:06.369Z,8.90
2019-06-01T03:33:35.686Z,9.00
2019-06-01T03:36:05.340Z,9.00
2019-06-01T03:38:35.692Z,9.10
2019-06-01T03:41:06.139Z,9.20
2019-06-01T03:43:35.844Z,9.20
2019-06-01T03:46:06.576Z,9.20
2019-06-01T03:48:36.298Z,9.30
2019-06-01T03:51:05.812Z,9.40
2019-06-01T03:53:35.456Z,9.40
2019-06-01T03:56:05.053Z,9.40
2019-06-01T03:58:34.623Z,9.50
2019-06-01T04:01:05.206Z,9.50
2019-06-01T04:03:34.810Z,9.60
2019-06-01T04:06:05.613Z,9.60
2019-06-01T04:08:35.298Z,9.70
2019-06-01T04:11:05.675Z,9.70
2019-06-01T04:13:35.504Z,9.70
2019-06-01T04:16:05.868Z,9.80
2019-06-01T04:18:36.701Z,9.80
2019-06-01T04:21:06.259Z,9.90
2019-06-01T04:23:36.557Z,9.90
2019-06-01T04:26:06.127Z,10.00
2019-06-01T04:28:35.868Z,10.00
2019-06-01T04:31:06.568Z,10.10
2019-06-01T04:33:36.190Z,10.10
2019-06-01T04:36:06.667Z,10.20
2019-06-01T04:38:36.532Z,10.20
2019-06-01T04:41:07.556Z,10.20
2019-06-01T04:43:37.367Z,10.30
2019-06-01T04:46:08.183Z,10.30
2019-06-01T04:48:38.059Z,10.30
2019-06-01T04:51:08.729Z,10.30
2019-06-01T04:53:38.480Z,10.30
2019-06-01T04:56:09.047Z,10.40
2019-06-01T04:58:38.671Z,10.40
2019-06-01T05:01:08.999Z,10.50
2019-06-01T05:03:38.707Z,10.50
2019-06-01T05:06:09.267Z,10.60
2019-06-01T05:08:39.117Z,10.60
2019-06-01T05:11:10.177Z,10.70
2019-06-01T05:13:39.991Z,10.70
2019-06-01T05:16:10.031Z,10.80
2019-06-01T05:18:41.715Z,10.80
2019-06-01T05:21:12.623Z,10.90
2019-06-01T05:23:43.238Z,11.00
2019-06-01T05:26:13.155Z,11.00
2019-06-01T05:28:42.860Z,11.10
2019-06-01T05:31:19.935Z,11.20
2019-06-01T05:33:43.825Z,11.30
2019-06-01T05:36:14.302Z,11.40
2019-06-01T05:38:44.007Z,11.40
2019-06-01T05:41:14.865Z,11.50
2019-06-01T05:43:44.581Z,11.50
2019-06-01T05:46:14.300Z,11.50
2019-06-01T05:48:43.938Z,11.50
2019-06-01T05:51:15.563Z,11.50
2019-06-01T05:53:45.586Z,11.50
2019-06-01T05:56:15.186Z,11.50
2019-06-01T05:58:44.835Z,11.50
2019-06-01T06:01:14.778Z,11.60
2019-06-01T06:03:44.466Z,11.60
2019-06-01T06:06:14.063Z,11.50
2019-06-01T06:08:43.648Z,11.50
2019-06-01T06:11:13.232Z,11.50
2019-06-01T06:13:42.919Z,11.50
2019-06-01T06:16:13.701Z,11.40
2019-06-01T06:18:43.557Z,11.30
2019-06-01T06:21:13.999Z,11.40
2019-06-01T06:23:43.670Z,11.30
2019-06-01T06:26:15.503Z,11.30
2019-06-01T06:28:44.657Z,11.30
2019-06-01T06:31:15.048Z,11.40
2019-06-01T06:33:55.933Z,11.40
2019-06-01T06:36:15.970Z,11.50
2019-06-01T06:38:45.574Z,11.60
2019-06-01T06:41:16.055Z,11.70
2019-06-01T06:43:45.812Z,11.80
2019-06-01T06:46:16.498Z,11.80
2019-06-01T06:48:46.200Z,11.80
2019-06-01T06:51:15.850Z,11.90
2019-06-01T06:53:45.445Z,11.90
2019-06-01T06:56:15.696Z,11.90
2019-06-01T06:58:45.455Z,11.90
2019-06-01T07:01:15.092Z,11.90
2019-06-01T07:03:45.682Z,12.00
2019-06-01T07:06:15.433Z,12.00
2019-06-01T07:08:48.824Z,12.10
2019-06-01T07:11:17.242Z,12.20
2019-06-01T07:13:46.744Z,12.20
2019-06-01T07:16:16.337Z,12.30
2019-06-01T07:18:45.929Z,12.40
2019-06-01T07:21:16.111Z,12.40
2019-06-01T07:23:45.708Z,12.60
2019-06-01T07:26:15.283Z,12.50
2019-06-01T07:28:44.879Z,12.60
2019-06-01T07:31:14.520Z,12.70
2019-06-01T07:33:44.124Z,12.80
2019-06-01T07:36:13.788Z,12.80
2019-06-01T07:38:43.368Z,12.90
2019-06-01T07:41:12.952Z,12.90
2019-06-01T07:43:42.640Z,12.90
2019-06-01T07:46:12.248Z,13.00
2019-06-01T07:48:42.939Z,13.00
2019-06-01T07:51:12.588Z,13.00
2019-06-01T07:53:42.282Z,13.10
2019-06-01T07:56:11.863Z,13.00
2019-06-01T07:58:41.507Z,12.90
2019-06-01T08:01:11.117Z,12.80
2019-06-01T08:03:40.786Z,12.80
2019-06-01T08:06:10.503Z,12.70
2019-06-01T08:08:40.114Z,12.80
2019-06-01T08:11:09.813Z,12.70
2019-06-01T08:13:39.454Z,12.80
2019-06-01T08:16:09.124Z,12.70
2019-06-01T08:18:38.734Z,12.70
2019-06-01T08:21:08.301Z,12.80
2019-06-01T08:23:37.952Z,12.80
2019-06-01T08:26:07.620Z,12.90
2019-06-01T08:28:37.281Z,13.00
2019-06-01T08:31:06.855Z,13.10
2019-06-01T08:33:36.545Z,13.20
2019-06-01T08:36:06.185Z,13.30
2019-06-01T08:38:35.705Z,13.40
2019-06-01T08:41:05.330Z,13.60
2019-06-01T08:43:34.975Z,13.70
2019-06-01T08:46:04.715Z,13.80
2019-06-01T08:48:34.314Z,13.80
2019-06-01T08:51:04.004Z,13.90
2019-06-01T08:53:34.233Z,14.10
2019-06-01T08:56:03.979Z,14.30
2019-06-01T08:58:34.662Z,14.40
2019-06-01T09:01:04.334Z,14.60
2019-06-01T09:03:39.923Z,14.80
2019-06-01T09:06:06.193Z,15.10
2019-06-01T09:08:35.872Z,15.30
2019-06-01T09:11:05.494Z,15.40
2019-06-01T09:13:35.541Z,15.50
2019-06-01T09:16:05.796Z,15.60
2019-06-01T09:18:36.463Z,15.80
2019-06-01T09:21:06.130Z,15.90
2019-06-01T09:23:36.944Z,15.90
2019-06-01T09:26:06.930Z,16.10
2019-06-01T09:28:36.567Z,16.20
2019-06-01T09:31:06.174Z,16.40
2019-06-01T09:33:36.872Z,16.50
2019-06-01T09:36:07.676Z,16.60
2019-06-01T09:38:38.994Z,16.70
2019-06-01T09:41:08.711Z,16.50
2019-06-01T09:43:38.287Z,16.70
2019-06-01T09:46:08.564Z,16.70
2019-06-01T09:48:38.229Z,16.80
2019-06-01T09:51:07.907Z,16.70
2019-06-01T09:53:38.107Z,16.70
2019-06-01T09:56:07.993Z,16.60
2019-06-01T09:58:38.756Z,16.60
2019-06-01T10:01:08.570Z,16.60
2019-06-01T10:03:38.604Z,16.60
2019-06-01T10:06:08.417Z,16.50
2019-06-01T10:08:38.284Z,16.40
2019-06-01T10:11:09.047Z,16.50
2019-06-01T10:13:38.739Z,16.40
2019-06-01T10:16:08.310Z,16.40
2019-06-01T10:18:39.015Z,16.30
2019-06-01T10:21:08.745Z,16.30
2019-06-01T10:23:38.525Z,16.30
2019-06-01T10:26:08.324Z,16.30
2019-06-01T10:28:37.945Z,16.20
2019-06-01T10:31:07.544Z,16.30
2019-06-01T10:33:37.421Z,16.30
2019-06-01T10:36:19.955Z,16.30
2019-06-01T10:38:39.350Z,16.30
2019-06-01T10:41:09.029Z,16.10
2019-06-01T10:43:39.750Z,16.30
2019-06-01T10:46:09.411Z,16.20
2019-06-01T10:48:40.122Z,16.20
2019-06-01T10:51:09.872Z,16.30
2019-06-01T10:53:41.297Z,16.30
2019-06-01T10:56:10.697Z,16.50
2019-06-01T10:58:56.731Z,16.70
2019-06-01T11:01:11.636Z,16.80
2019-06-01T11:03:41.252Z,16.80
2019-06-01T11:06:10.832Z,16.80
2019-06-01T11:08:41.060Z,16.90
2019-06-01T11:11:10.743Z,16.90
2019-06-01T11:13:41.116Z,16.90
2019-06-01T11:16:10.836Z,16.90
2019-06-01T11:18:41.847Z,16.80
2019-06-01T11:21:11.521Z,16.70
2019-06-01T11:23:43.722Z,16.70
2019-06-01T11:26:12.342Z,16.60
2019-06-01T11:28:42.309Z,16.50
2019-06-01T11:31:12.963Z,16.50
2019-06-01T11:33:42.548Z,16.50
2019-06-01T11:36:12.171Z,16.50
2019-06-01T11:38:42.543Z,16.40
2019-06-01T11:41:13.209Z,16.30
2019-06-01T11:43:45.889Z,16.20
2019-06-01T11:46:15.073Z,16.20
2019-06-01T11:48:45.388Z,16.30
2019-06-01T11:51:15.255Z,16.30
2019-06-01T11:53:45.657Z,16.30
2019-06-01T11:56:15.503Z,16.30
2019-06-01T11:58:45.657Z,16.30
2019-06-01T12:01:15.432Z,16.30
2019-06-01T12:03:46.173Z,16.40
2019-06-01T12:06:15.853Z,16.40
2019-06-01T12:08:46.331Z,16.40
2019-06-01T12:11:16.032Z,16.50
2019-06-01T12:13:46.561Z,16.50
2019-06-01T12:16:16.352Z,16.60
2019-06-01T12:18:46.912Z,16.70
2019-06-01T12:21:16.621Z,16.70
2019-06-01T12:23:47.474Z,16.80
2019-06-01T12:26:17.164Z,16.80
2019-06-01T12:28:47.950Z,16.90
2019-06-01T12:31:18.786Z,16.90
2019-06-01T12:33:48.799Z,17.00
2019-06-01T12:36:18.532Z,17.10
2019-06-01T12:38:51.666Z,17.20
2019-06-01T12:41:22.326Z,17.40
2019-06-01T12:44:09.096Z,17.50
2019-06-01T12:46:39.790Z,17.70
2019-06-01T12:49:10.836Z,17.80
2019-06-01T12:51:40.646Z,17.80
2019-06-01T12:54:10.395Z,17.80
2019-06-01T12:56:40.739Z,17.80
2019-06-01T12:59:10.424Z,17.90
2019-06-01T13:01:41.051Z,17.90
2019-06-01T13:04:10.713Z,17.90
2019-06-01T13:06:40.710Z,17.90
2019-06-01T13:09:10.483Z,18.00
2019-06-01T13:11:41.207Z,18.10
2019-06-01T13:14:10.870Z,18.20
2019-06-01T13:16:43.955Z,18.20
2019-06-01T13:19:11.756Z,18.30
2019-06-01T13:21:41.428Z,18.20
2019-06-01T13:24:11.093Z,18.20
2019-06-01T13:26:41.761Z,18.20
2019-06-01T13:29:11.484Z,18.10
2019-06-01T13:31:42.085Z,18.10
2019-06-01T13:34:11.870Z,18.10
2019-06-01T13:36:42.510Z,18.00
2019-06-01T13:39:12.109Z,18.00
2019-06-01T13:41:42.917Z,18.00
2019-06-01T13:44:12.618Z,18.00
2019-06-01T13:46:43.477Z,18.10
2019-06-01T13:49:13.166Z,18.00
2019-06-01T13:51:44.059Z,18.00
2019-06-01T13:54:15.278Z,18.00
2019-06-01T13:56:44.847Z,18.00
2019-06-01T13:59:14.425Z,18.00
2019-06-01T14:01:45.094Z,18.00
2019-06-01T14:04:14.900Z,18.00
2019-06-01T14:06:46.901Z,18.00
2019-06-01T14:09:16.724Z,18.00
2019-06-01T14:11:47.365Z,17.90
2019-06-01T14:14:16.929Z,17.80
2019-06-01T14:16:47.519Z,17.80
2019-06-01T14:19:18.214Z,17.80
2019-06-01T14:21:47.896Z,17.70
2019-06-01T14:24:17.340Z,17.60
2019-06-01T14:26:48.117Z,17.70
2019-06-01T14:29:17.828Z,17.60
2019-06-01T14:31:48.461Z,17.60
2019-06-01T14:34:18.124Z,17.60
2019-06-01T14:36:48.549Z,17.60
2019-06-01T14:39:18.226Z,17.60
2019-06-01T14:41:48.912Z,17.60
2019-06-01T14:44:18.648Z,17.60
2019-06-01T14:46:56.100Z,17.70
2019-06-01T14:49:19.591Z,17.80
2019-06-01T14:51:49.939Z,17.80
2019-06-01T14:54:19.622Z,17.90
2019-06-01T14:56:49.691Z,18.00
2019-06-01T14:59:22.620Z,18.10
2019-06-01T15:01:54.237Z,18.10
2019-06-01T15:04:23.882Z,18.10
2019-06-01T15:06:54.334Z,18.10
2019-06-01T15:09:23.996Z,18.20
2019-06-01T15:11:54.494Z,18.10
2019-06-01T15:14:24.321Z,18.10
2019-06-01T15:16:54.062Z,18.10
2019-06-01T15:19:23.700Z,18.20
2019-06-01T15:21:54.114Z,18.30
2019-06-01T15:24:24.126Z,18.30
2019-06-01T15:26:54.660Z,18.30
2019-06-01T15:29:24.373Z,18.40
2019-06-01T15:31:53.964Z,18.30
2019-06-01T15:34:23.552Z,18.30
2019-06-01T15:36:53.587Z,18.40
2019-06-01T15:39:25.141Z,18.30
2019-06-01T15:41:55.236Z,18.20
2019-06-01T15:44:24.846Z,18.30
2019-06-01T15:46:55.680Z,18.30
2019-06-01T15:49:25.566Z,18.30
2019-06-01T15:51:55.840Z,18.30
2019-06-01T15:54:27.121Z,18.30
2019-06-01T15:56:56.700Z,18.20
2019-06-01T15:59:26.312Z,18.20
2019-06-01T16:01:57.295Z,18.00
2019-06-01T16:04:27.049Z,17.90
2019-06-01T16:06:57.115Z,17.90
2019-06-01T16:09:41.672Z,17.90
2019-06-01T16:11:59.494Z,17.80
2019-06-01T16:14:29.225Z,17.90
2019-06-01T16:17:00.653Z,18.00
2019-06-01T16:19:30.199Z,18.10
2019-06-01T16:22:00.311Z,18.20
2019-06-01T16:24:30.085Z,18.40
2019-06-01T16:27:00.375Z,18.50
2019-06-01T16:29:30.123Z,18.60
2019-06-01T16:32:00.767Z,18.70
2019-06-01T16:34:30.470Z,18.80
2019-06-01T16:37:01.049Z,18.70
2019-06-01T16:39:30.898Z,18.80
2019-06-01T16:42:01.948Z,18.60
2019-06-01T16:44:31.708Z,18.60
2019-06-01T16:47:02.766Z,18.60
2019-06-01T16:49:32.524Z,18.60
2019-06-01T16:52:03.246Z,18.60
2019-06-01T16:54:33.116Z,18.60
2019-06-01T16:57:02.992Z,18.50
2019-06-01T16:59:32.748Z,18.50
2019-06-01T17:02:03.366Z,18.50
2019-06-01T17:04:33.063Z,18.40
2019-06-01T17:07:05.652Z,18.40
2019-06-01T17:09:33.801Z,18.30
2019-06-01T17:12:03.437Z,18.20
2019-06-01T17:14:32.982Z,18.20
2019-06-01T17:17:03.205Z,18.20
2019-06-01T17:19:34.011Z,18.20
2019-06-01T17:22:03.618Z,18.10
2019-06-01T17:24:33.278Z,18.10
2019-06-01T17:27:03.994Z,18.00
2019-06-01T17:29:33.635Z,18.00
2019-06-01T17:32:16.765Z,17.80
2019-06-01T17:34:34.506Z,17.70
2019-06-01T17:37:04.754Z,17.60
2019-06-01T17:39:34.474Z,17.50
2019-06-01T17:42:04.372Z,17.40
2019-06-01T17:44:33.896Z,17.40
2019-06-01T17:47:04.546Z,17.30
2019-06-01T17:49:34.278Z,17.30
2019-06-01T17:52:03.879Z,17.20
2019-06-01T17:54:33.526Z,17.20
2019-06-01T17:57:03.429Z,17.10
2019-06-01T17:59:33.110Z,17.00
2019-06-01T18:02:03.630Z,16.90
2019-06-01T18:04:33.310Z,16.90
2019-06-01T18:07:03.739Z,16.90
2019-06-01T18:09:33.524Z,16.80
2019-06-01T18:12:03.936Z,16.80
2019-06-01T18:14:33.612Z,16.80
2019-06-01T18:17:04.020Z,16.70
2019-06-01T18:19:33.747Z,16.70
2019-06-01T18:22:04.427Z,16.70
2019-06-01T18:24:34.229Z,16.40
2019-06-01T18:27:04.346Z,16.50
2019-06-01T18:29:34.172Z,16.50
2019-06-01T18:32:03.832Z,16.50
2019-06-01T18:34:33.504Z,16.50
2019-06-01T18:37:03.199Z,16.40
2019-06-01T18:39:32.746Z,16.40
2019-06-01T18:42:03.673Z,16.30
2019-06-01T18:44:33.419Z,16.20
2019-06-01T18:47:03.587Z,16.20
2019-06-01T18:49:33.539Z,16.20
2019-06-01T18:52:04.394Z,16.20
2019-06-01T18:54:34.060Z,16.10
2019-06-01T18:57:10.918Z,16.00
2019-06-01T18:59:34.908Z,15.90
2019-06-01T19:02:04.589Z,15.80
2019-06-01T19:04:34.246Z,15.80
2019-06-01T19:07:05.091Z,15.80
2019-06-01T19:09:34.756Z,15.70
2019-06-01T19:12:04.347Z,15.60
2019-06-01T19:14:33.949Z,15.40
2019-06-01T19:17:03.607Z,15.50
2019-06-01T19:19:33.194Z,15.40
2019-06-01T19:22:02.731Z,15.40
2019-06-01T19:24:32.391Z,15.30
2019-06-01T19:27:01.995Z,15.30
2019-06-01T19:29:31.574Z,15.20
2019-06-01T19:32:02.359Z,15.10
2019-06-01T19:34:31.999Z,15.10
2019-06-01T19:37:02.250Z,15.00
2019-06-01T19:39:32.518Z,14.90
2019-06-01T19:42:02.167Z,14.80
2019-06-01T19:44:31.819Z,14.70
2019-06-01T19:47:01.468Z,14.70
2019-06-01T19:49:31.131Z,14.60
2019-06-01T19:52:00.800Z,14.50
2019-06-01T19:54:30.399Z,14.40
2019-06-01T19:57:00.052Z,14.40
2019-06-01T19:59:29.700Z,14.30
2019-06-01T20:01:59.315Z,14.30
2019-06-01T20:04:28.978Z,14.30
2019-06-01T20:06:58.704Z,14.30
2019-06-01T20:09:28.292Z,14.20
2019-06-01T20:12:01.827Z,14.10
2019-06-01T20:14:29.102Z,14.00
2019-06-01T20:16:58.678Z,14.10
2019-06-01T20:19:28.197Z,14.00
2019-06-01T20:21:57.739Z,13.90
2019-06-01T20:24:27.333Z,13.90
2019-06-01T20:26:56.947Z,13.90
2019-06-01T20:29:26.587Z,13.80
2019-06-01T20:31:56.239Z,13.80
2019-06-01T20:34:25.902Z,13.80
2019-06-01T20:36:55.563Z,13.70
2019-06-01T20:39:25.146Z,13.70
2019-06-01T20:41:54.800Z,13.70
2019-06-01T20:44:24.457Z,13.60
2019-06-01T20:46:54.130Z,13.60
2019-06-01T20:49:23.691Z,13.60
2019-06-01T20:51:53.338Z,13.50
2019-06-01T20:54:23.220Z,13.50
2019-06-01T20:56:53.904Z,13.50
2019-06-01T20:59:24.583Z,13.40
2019-06-01T21:01:54.339Z,13.40
2019-06-01T21:04:24.360Z,13.40
2019-06-01T21:06:54.054Z,13.40
2019-06-01T21:09:24.383Z,13.40
2019-06-01T21:11:54.142Z,13.40
2019-06-01T21:14:23.733Z,13.30
2019-06-01T21:16:53.320Z,13.30
2019-06-01T21:19:23.025Z,13.30
2019-06-01T21:21:52.618Z,13.20
2019-06-01T21:24:25.268Z,13.20
2019-06-01T21:26:55.004Z,13.20
2019-06-01T21:29:25.161Z,13.20
2019-06-01T21:31:54.883Z,13.20
2019-06-01T21:34:25.446Z,13.20
2019-06-01T21:36:55.075Z,13.20
2019-06-01T21:39:25.538Z,13.20
2019-06-01T21:41:55.211Z,13.10
2019-06-01T21:44:26.350Z,13.10
2019-06-01T21:46:55.958Z,13.10
2019-06-01T21:49:25.938Z,13.10
2019-06-01T21:51:55.492Z,13.00
2019-06-01T21:54:26.321Z,13.00
2019-06-01T21:56:55.985Z,12.90
2019-06-01T21:59:27.112Z,12.90
2019-06-01T22:01:56.860Z,12.90
2019-06-01T22:04:27.206Z,12.80
2019-06-01T22:06:58.097Z,12.80
2019-06-01T22:09:27.767Z,12.80
2019-06-01T22:11:57.412Z,12.80
2019-06-01T22:14:28.079Z,12.70
2019-06-01T22:16:57.664Z,12.70
2019-06-01T22:19:28.099Z,12.70
2019-06-01T22:21:57.829Z,12.70
2019-06-01T22:24:28.322Z,12.60
2019-06-01T22:26:57.904Z,12.60
2019-06-01T22:29:28.612Z,12.60
2019-06-01T22:31:58.305Z,12.60
2019-06-01T22:34:29.337Z,12.60
2019-06-01T22:36:59.115Z,12.60
2019-06-01T22:39:28.990Z,12.60
2019-06-01T22:41:58.588Z,12.60
2019-06-01T22:44:28.423Z,12.60
2019-06-01T22:46:58.077Z,12.50
2019-06-01T22:49:28.836Z,12.50
2019-06-01T22:51:58.484Z,12.50
2019-06-01T22:54:29.267Z,12.50
2019-06-01T22:56:59.182Z,12.50
2019-06-01T22:59:28.830Z,12.50
2019-06-01T23:01:58.418Z,12.40
2019-06-01T23:04:29.169Z,12.50
2019-06-01T23:06:58.973Z,12.50
2019-06-01T23:09:29.687Z,12.40
2019-06-01T23:11:59.432Z,12.50
2019-06-01T23:14:29.465Z,12.40
2019-06-01T23:16:59.051Z,12.50
2019-06-01T23:19:29.826Z,12.50
2019-06-01T23:21:59.743Z,12.50
2019-06-01T23:24:30.307Z,12.50
2019-06-01T23:27:00.069Z,12.50
2019-06-01T23:29:30.259Z,12.40
2019-06-01T23:32:01.028Z,12.40
2019-06-01T23:34:30.774Z,12.40
2019-06-01T23:37:00.337Z,12.40
2019-06-01T23:39:30.768Z,12.40
2019-06-01T23:42:00.551Z,12.40
2019-06-01T23:44:32.469Z,12.40
2019-06-01T23:47:01.365Z,12.40
2019-06-01T23:49:31.344Z,12.40
2019-06-01T23:52:00.987Z,12.30
2019-06-01T23:54:32.308Z,12.30
2019-06-01T23:57:01.799Z,12.30
2019-06-01T23:59:32.517Z,12.30
